Terminal Aerodrome Forecast
Issued by NWS Twin Cities, MN

Home | Current Version | Previous Version | Text Only | Print | Product List | Glossary Off
Versions: 1 2 3 4 5 6 7 8 9 10 11 12 13 14 15 16

000
FTUS43 KMPX 271700
TAFEAU
TAF
KEAU 271720Z 2718/2818 32014G24KT P6SM -SHRA SCT025 BKN045
     FM272000 35012KT P6SM -SHRA SCT030 BKN045
     FM280000 36007KT P6SM VCSH SCT035 BKN050
     FM280300 33003KT P6SM FEW040
     FM281500 33008KT P6SM SCT040=

USA.gov is the U.S. government's official web portal to all federal, state and local government web resources and services.